Time;durP1;ratioP1;P1;durP2;ratioP2;P2;SDS_P1;SDS_P2;PMS_P1;PMS_P2;Temp;Humidity;BMP_temperature;BMP_pressure;BME280_temperature;BME280_humidity;BME280_pressure;Samples;Min_cycle;Max_cycle;Signal;HPM_P1;HPM_P2
2023/03/14 00:00:36;;;;;;;4.40;2.40;;;;;;;11.37;100.00;98881.00;5007726;28;20213;-72
2023/03/14 00:03:02;;;;;;;5.07;2.63;;;;;;;11.37;100.00;98901.50;5008776;28;20579;-70
2023/03/14 00:05:27;;;;;;;3.80;2.70;;;;;;;11.35;100.00;98910.94;5008637;28;20210;-70
2023/03/14 00:07:53;;;;;;;6.00;2.93;;;;;;;11.32;100.00;98916.97;5009175;28;20209;-70
2023/03/14 00:10:19;;;;;;;6.73;2.57;;;;;;;11.32;100.00;98937.47;5008351;28;20222;-69
2023/03/14 00:12:45;;;;;;;3.20;2.27;;;;;;;11.32;100.00;98932.34;5006552;28;20195;-71
2023/03/14 00:15:11;;;;;;;5.97;3.30;;;;;;;11.32;100.00;98936.59;5007718;28;20199;-70
2023/03/14 00:17:37;;;;;;;6.33;2.80;;;;;;;11.29;100.00;98940.06;5009265;28;20194;-70
2023/03/14 00:20:10;;;;;;;6.70;3.00;;;;;;;11.26;100.00;98931.59;5011942;28;20360;-70
2023/03/14 00:22:37;;;;;;;8.37;2.93;;;;;;;11.19;100.00;98930.81;5011640;28;20660;-71
2023/03/14 00:25:03;;;;;;;6.23;2.50;;;;;;;11.13;100.00;98923.22;5012815;28;20710;-70
2023/03/14 00:27:28;;;;;;;7.30;3.20;;;;;;;11.08;100.00;98919.88;5012306;28;20683;-70
2023/03/14 00:29:54;;;;;;;6.33;2.77;;;;;;;11.07;100.00;98917.34;5011176;28;20311;-70
2023/03/14 00:32:19;;;;;;;5.83;2.53;;;;;;;11.06;100.00;98916.47;5012815;28;20278;-71
2023/03/14 00:34:45;;;;;;;7.83;3.50;;;;;;;11.06;100.00;98919.03;5011488;28;20715;-69
2023/03/14 00:37:10;;;;;;;6.93;2.90;;;;;;;11.00;100.00;98916.56;5014070;28;20599;-70
2023/03/14 00:39:37;;;;;;;7.47;3.20;;;;;;;10.95;100.00;98910.66;5012182;28;20218;-70
2023/03/14 00:42:03;;;;;;;4.23;2.40;;;;;;;10.90;100.00;98902.22;5012645;28;20723;-69
2023/03/14 00:44:28;;;;;;;5.10;2.57;;;;;;;10.83;100.00;98884.38;5012549;28;20213;-69
2023/03/14 00:46:54;;;;;;;7.77;2.43;;;;;;;10.80;100.00;98882.72;5007905;28;20199;-68
2023/03/14 00:49:19;;;;;;;5.53;3.10;;;;;;;10.74;100.00;98874.28;5012033;28;20187;-71
2023/03/14 00:51:45;;;;;;;6.07;2.60;;;;;;;10.67;100.00;98870.09;5004423;28;21003;-71
2023/03/14 00:54:10;;;;;;;6.40;2.57;;;;;;;10.64;100.00;98844.56;5012574;28;20198;-72
2023/03/14 00:56:36;;;;;;;3.30;2.50;;;;;;;10.60;100.00;98843.72;5011624;28;20203;-72
2023/03/14 00:59:01;;;;;;;5.10;2.40;;;;;;;10.55;100.00;98850.63;5012777;28;20210;-70
2023/03/14 01:01:26;;;;;;;7.30;3.00;;;;;;;10.49;100.00;98866.06;5011040;28;20225;-71
2023/03/14 01:03:54;;;;;;;5.93;3.00;;;;;;;10.46;100.00;98884.00;5011697;28;20577;-72
2023/03/14 01:06:23;;;;;;;6.07;2.90;;;;;;;10.44;100.00;98905.34;5010663;28;20187;-70
2023/03/14 01:08:49;;;;;;;4.43;2.77;;;;;;;10.45;100.00;98907.88;5006636;28;20202;-71
2023/03/14 01:11:18;;;;;;;10.63;2.77;;;;;;;10.43;100.00;98914.75;5011581;28;20222;-69
2023/03/14 01:13:44;;;;;;;5.10;2.13;;;;;;;10.44;100.00;98907.91;5009803;28;20201;-70
2023/03/14 01:16:11;;;;;;;7.13;2.57;;;;;;;10.44;100.00;98911.31;5011951;28;20195;-71
2023/03/14 01:18:38;;;;;;;5.00;2.13;;;;;;;10.48;100.00;98894.22;5010826;28;20215;-70
2023/03/14 01:21:09;;;;;;;5.53;2.80;;;;;;;10.51;100.00;98895.00;5011426;28;20485;-71
2023/03/14 01:23:34;;;;;;;6.17;2.40;;;;;;;10.52;100.00;98891.63;5011589;28;20202;-69
2023/03/14 01:26:00;;;;;;;5.37;2.83;;;;;;;10.55;100.00;98886.44;5010507;28;20199;-70
2023/03/14 01:28:25;;;;;;;4.43;2.30;;;;;;;10.57;100.00;98878.75;5010504;28;20277;-72
2023/03/14 01:30:51;;;;;;;5.53;2.50;;;;;;;10.59;100.00;98880.44;5011766;28;20225;-69
2023/03/14 01:33:16;;;;;;;4.10;2.63;;;;;;;10.63;100.00;98879.53;5010034;28;20198;-70
2023/03/14 01:35:43;;;;;;;6.17;2.50;;;;;;;10.65;100.00;98867.53;5010549;28;20195;-73
2023/03/14 01:38:09;;;;;;;7.30;3.10;;;;;;;10.69;100.00;98853.00;5014362;28;20226;-69
2023/03/14 01:40:42;;;;;;;7.97;3.33;;;;;;;10.71;100.00;98844.44;5009694;28;20302;-69
2023/03/14 01:43:17;;;;;;;7.73;2.73;;;;;;;10.75;100.00;98847.81;5012031;28;20222;-69
2023/03/14 01:46:05;;;;;;;7.83;3.47;;;;;;;10.81;100.00;98863.06;5008468;28;20198;-70
2023/03/14 01:48:38;;;;;;;7.80;2.80;;;;;;;10.83;100.00;98866.47;5004017;28;20286;-70
2023/03/14 01:51:08;;;;;;;7.23;2.87;;;;;;;10.88;100.00;98862.13;5007466;28;20321;-69
2023/03/14 01:53:36;;;;;;;7.47;3.10;;;;;;;10.90;100.00;98842.47;4993982;28;20249;-70
2023/03/14 01:56:03;;;;;;;8.07;3.60;;;;;;;10.93;100.00;98834.75;5010963;28;20633;-70
2023/03/14 01:58:32;;;;;;;11.53;3.57;;;;;;;10.97;100.00;98834.66;5010225;28;20265;-70
2023/03/14 02:00:59;;;;;;;9.40;3.47;;;;;;;10.99;100.00;98845.75;5011088;28;20249;-70
2023/03/14 02:03:26;;;;;;;9.33;3.57;;;;;;;10.99;100.00;98821.84;5007246;28;20206;-69
2023/03/14 02:05:56;;;;;;;9.50;4.00;;;;;;;10.95;100.00;98833.00;5009158;28;20187;-70
2023/03/14 02:08:24;;;;;;;11.17;3.53;;;;;;;10.86;100.00;98813.50;5009242;28;20186;-70
2023/03/14 02:10:53;;;;;;;9.40;3.67;;;;;;;10.81;100.00;98820.41;5008301;28;20246;-69
2023/03/14 02:13:32;;;;;;;9.97;3.47;;;;;;;10.72;100.00;98812.00;5008934;28;20233;-70
2023/03/14 02:16:16;;;;;;;9.43;4.10;;;;;;;10.68;100.00;98808.63;5010297;28;20206;-68
2023/03/14 02:19:02;;;;;;;10.43;3.43;;;;;;;10.64;100.00;98773.72;5010135;28;20214;-69
2023/03/14 02:22:09;;;;;;;10.80;3.23;;;;;;;10.61;100.00;98752.44;5009041;28;20219;-69
2023/03/14 02:25:08;;;;;;;10.60;3.50;;;;;;;10.59;100.00;98754.16;5007949;28;20707;-68
2023/03/14 02:27:34;;;;;;;9.27;3.47;;;;;;;10.57;100.00;98763.59;5007410;28;20190;-70
2023/03/14 02:30:05;;;;;;;13.23;3.77;;;;;;;10.54;100.00;98773.84;5008513;28;20187;-69
2023/03/14 02:32:34;;;;;;;10.63;3.23;;;;;;;10.50;100.00;98767.94;5010257;28;20282;-69
2023/03/14 02:35:06;;;;;;;11.57;3.20;;;;;;;10.48;100.00;98776.50;5008195;28;20270;-69
2023/03/14 02:37:57;;;;;;;12.03;3.83;;;;;;;10.42;100.00;98769.75;5010250;28;20199;-69
2023/03/14 02:40:25;;;;;;;11.43;3.10;;;;;;;10.38;100.00;98782.63;5009108;28;20230;-69
2023/03/14 02:42:52;;;;;;;8.83;3.20;;;;;;;10.32;100.00;98780.97;5003418;28;20202;-72
2023/03/14 02:45:17;;;;;;;9.10;3.30;;;;;;;10.30;100.00;98797.22;5009759;28;20584;-73
2023/03/14 02:47:49;;;;;;;13.53;5.97;;;;;;;10.23;100.00;98800.72;5008370;28;20191;-72
2023/03/14 02:50:22;;;;;;;14.00;3.80;;;;;;;10.24;100.00;98805.84;5009452;28;20215;-71
2023/03/14 02:52:47;;;;;;;10.50;3.60;;;;;;;10.21;100.00;98807.56;5009069;28;20203;-71
2023/03/14 02:55:13;;;;;;;8.87;2.97;;;;;;;10.18;100.00;98805.88;5010715;28;20183;-71
2023/03/14 02:57:41;;;;;;;9.23;3.33;;;;;;;10.19;100.00;98807.56;5009150;28;20660;-70
2023/03/14 03:00:08;;;;;;;9.87;2.83;;;;;;;10.20;100.00;98805.88;5012232;28;20229;-70
2023/03/14 03:02:35;;;;;;;8.20;3.03;;;;;;;10.19;100.00;98810.13;5008391;28;20570;-71
2023/03/14 03:05:01;;;;;;;5.93;2.90;;;;;;;10.17;100.00;98800.78;5005290;28;20205;-69
2023/03/14 03:07:26;;;;;;;7.70;3.40;;;;;;;10.16;100.00;98802.53;5010639;28;20278;-69
2023/03/14 03:09:54;;;;;;;9.63;3.40;;;;;;;10.17;100.00;98803.34;5013898;28;20258;-70
2023/03/14 03:12:20;;;;;;;7.23;3.00;;;;;;;10.18;100.00;98794.84;5009587;28;20217;-70
2023/03/14 03:14:45;;;;;;;6.00;3.20;;;;;;;10.18;100.00;98793.09;5006544;28;20199;-71
2023/03/14 03:17:10;;;;;;;7.57;3.43;;;;;;;10.19;100.00;98792.22;5009639;28;20573;-72
2023/03/14 03:19:37;;;;;;;9.13;3.40;;;;;;;10.22;100.00;98787.09;5007600;28;21037;-71
2023/03/14 03:22:03;;;;;;;8.70;3.43;;;;;;;10.19;100.00;98783.72;5009711;28;20750;-71
2023/03/14 03:24:28;;;;;;;6.77;3.07;;;;;;;10.17;100.00;98773.50;5009154;28;20245;-70
2023/03/14 03:26:54;;;;;;;8.33;2.93;;;;;;;10.16;100.00;98769.28;4990388;28;20187;-70
2023/03/14 03:29:19;;;;;;;6.13;2.70;;;;;;;10.14;100.00;98765.88;5008938;28;20187;-70
2023/03/14 03:31:45;;;;;;;5.67;2.57;;;;;;;10.13;100.00;98763.34;5010193;28;20210;-69
2023/03/14 03:34:13;;;;;;;6.00;2.53;;;;;;;10.17;100.00;98759.88;5009204;28;20194;-70
2023/03/14 03:36:40;;;;;;;6.33;2.53;;;;;;;10.18;100.00;98754.75;5009531;28;20210;-69
2023/03/14 03:39:05;;;;;;;4.57;2.60;;;;;;;10.20;100.00;98763.25;5007811;28;20350;-69
2023/03/14 03:41:31;;;;;;;9.60;2.80;;;;;;;10.21;100.00;98756.41;5009416;28;20241;-70
2023/03/14 03:43:57;;;;;;;8.73;3.40;;;;;;;10.20;100.00;98753.03;5010626;28;20766;-70
2023/03/14 03:46:24;;;;;;;8.03;2.80;;;;;;;10.23;100.00;98755.53;5009017;28;20278;-70
2023/03/14 03:48:56;;;;;;;7.70;2.60;;;;;;;10.24;100.00;98749.56;5004035;28;20199;-71
2023/03/14 03:51:22;;;;;;;8.27;3.27;;;;;;;10.23;100.00;98745.28;5009149;28;20207;-69
2023/03/14 03:53:47;;;;;;;9.07;2.60;;;;;;;10.26;100.00;98745.25;5009562;28;20666;-69
2023/03/14 03:56:17;;;;;;;9.50;3.10;;;;;;;10.27;100.00;98746.13;5008547;28;20199;-70
2023/03/14 03:58:43;;;;;;;6.63;2.80;;;;;;;10.29;100.00;98744.38;5017741;28;20214;-70
2023/03/14 04:01:10;;;;;;;7.70;3.13;;;;;;;10.34;100.00;98740.03;5006613;28;20293;-72
2023/03/14 04:03:38;;;;;;;6.67;3.20;;;;;;;10.28;100.00;98735.03;5007881;28;20555;-69
2023/03/14 04:06:08;;;;;;;5.83;2.70;;;;;;;10.26;100.00;98735.03;5008598;28;20218;-69
2023/03/14 04:08:36;;;;;;;7.30;3.17;;;;;;;10.38;100.00;98724.66;4990110;28;20194;-70
2023/03/14 04:11:03;;;;;;;7.57;3.30;;;;;;;10.42;100.00;98735.69;5001203;28;20694;-69
2023/03/14 04:13:47;;;;;;;9.30;3.10;;;;;;;10.39;100.00;98726.31;5008538;28;20253;-72
2023/03/14 04:16:17;;;;;;;6.87;2.87;;;;;;;10.34;100.00;98724.69;5008162;28;20191;-69
2023/03/14 04:18:43;;;;;;;7.57;3.10;;;;;;;10.34;100.00;98723.00;5007076;28;20273;-69
2023/03/14 04:21:08;;;;;;;7.37;3.17;;;;;;;10.30;100.00;98720.47;4988290;28;20215;-69
2023/03/14 04:23:44;;;;;;;9.53;2.90;;;;;;;10.29;100.00;98719.66;5007710;28;20205;-70
2023/03/14 04:26:10;;;;;;;6.27;2.77;;;;;;;10.37;100.00;98711.88;5010187;28;20187;-72
2023/03/14 04:28:36;;;;;;;7.07;2.90;;;;;;;10.53;100.00;98714.19;5007345;28;20187;-71
2023/03/14 04:31:18;;;;;;;7.03;3.00;;;;;;;10.61;100.00;98714.06;5002568;28;20294;-71
2023/03/14 04:33:44;;;;;;;7.43;3.10;;;;;;;10.70;100.00;98707.06;5001331;28;20194;-69
2023/03/14 04:36:11;;;;;;;6.37;3.07;;;;;;;10.71;100.00;98706.22;5006658;28;20277;-71
2023/03/14 04:38:36;;;;;;;7.90;2.77;;;;;;;10.77;100.00;98713.78;5007235;28;20313;-71
2023/03/14 04:41:03;;;;;;;6.77;3.10;;;;;;;10.84;100.00;98709.44;5002077;28;20297;-71
2023/03/14 04:43:33;;;;;;;7.00;3.53;;;;;;;10.88;100.00;98693.97;5007286;28;20204;-69
2023/03/14 04:46:06;;;;;;;6.73;3.00;;;;;;;10.86;100.00;98703.41;5012117;28;20190;-70
2023/03/14 04:48:32;;;;;;;7.13;2.60;;;;;;;10.89;100.00;98689.72;5009117;28;20187;-70
2023/03/14 04:50:59;;;;;;;8.37;3.17;;;;;;;10.92;100.00;98684.56;5004007;28;20716;-72
2023/03/14 04:53:27;;;;;;;8.40;2.77;;;;;;;10.94;100.00;98685.34;5009180;28;20221;-71
2023/03/14 04:55:55;;;;;;;7.27;3.10;;;;;;;11.00;100.00;98698.03;5014796;28;20213;-71
2023/03/14 04:58:23;;;;;;;8.73;2.73;;;;;;;11.02;100.00;98684.34;5005994;28;20235;-71
2023/03/14 05:00:50;;;;;;;8.27;3.00;;;;;;;10.98;100.00;98692.97;5007889;28;20671;-69
2023/03/14 05:03:35;;;;;;;7.60;2.83;;;;;;;11.03;100.00;98690.31;5007678;28;20256;-69
2023/03/14 05:06:12;;;;;;;9.83;3.77;;;;;;;11.06;100.00;98680.03;5013120;28;20337;-70
2023/03/14 05:08:58;;;;;;;6.53;3.10;;;;;;;11.09;100.00;98677.41;5008623;28;20248;-70
2023/03/14 05:11:44;;;;;;;7.77;3.23;;;;;;;11.07;100.00;98674.84;5011110;28;20230;-69
2023/03/14 05:14:28;;;;;;;6.33;3.07;;;;;;;11.09;100.00;98677.41;5013384;28;20218;-69
2023/03/14 05:16:56;;;;;;;8.60;2.67;;;;;;;11.07;100.00;98674.84;5013569;28;20199;-69
2023/03/14 05:19:45;;;;;;;5.33;2.77;;;;;;;11.02;100.00;98673.28;5010200;28;20302;-71
2023/03/14 05:22:31;;;;;;;7.43;2.80;;;;;;;10.98;100.00;98679.31;5005552;28;20202;-69
2023/03/14 05:25:17;;;;;;;5.40;2.53;;;;;;;11.00;100.00;98675.84;5012049;28;20731;-69
2023/03/14 05:27:59;;;;;;;6.33;2.53;;;;;;;10.97;100.00;98668.22;4995810;28;20824;-69
2023/03/14 05:30:49;;;;;;;7.60;2.87;;;;;;;10.92;100.00;98667.44;5005253;28;20306;-69
2023/03/14 05:33:40;;;;;;;4.07;2.53;;;;;;;10.91;100.00;98670.03;5009900;28;20202;-69
2023/03/14 05:36:35;;;;;;;6.10;2.77;;;;;;;10.87;100.00;98656.44;5008531;28;20286;-71
2023/03/14 05:39:24;;;;;;;8.50;2.97;;;;;;;10.87;100.00;98658.19;5019401;28;20231;-70
2023/03/14 05:42:21;;;;;;;3.87;2.20;;;;;;;10.88;100.00;98657.31;5012791;28;20199;-70
2023/03/14 05:45:16;;;;;;;6.17;2.70;;;;;;;10.87;100.00;98653.06;5024228;28;20672;-71
2023/03/14 05:48:08;;;;;;;6.03;2.70;;;;;;;10.88;100.00;98659.88;5011488;28;20195;-69
2023/03/14 05:50:59;;;;;;;4.60;2.40;;;;;;;10.90;100.00;98660.66;5011593;28;20223;-70
2023/03/14 05:53:35;;;;;;;8.77;2.40;;;;;;;10.94;100.00;98659.75;5011159;28;20621;-68
2023/03/14 05:56:23;;;;;;;12.33;3.17;;;;;;;10.90;100.00;98655.56;5007514;28;20199;-69
2023/03/14 05:59:15;;;;;;;6.67;2.77;;;;;;;10.91;100.00;98645.28;5031836;28;20599;-69
2023/03/14 06:01:50;;;;;;;5.27;2.40;;;;;;;10.93;100.00;98652.94;5006043;28;20265;-69
2023/03/14 06:04:19;;;;;;;6.80;2.23;;;;;;;10.90;100.00;98656.41;5011306;28;20198;-70
2023/03/14 06:06:49;;;;;;;5.23;2.60;;;;;;;10.90;100.00;98661.53;5008474;28;20554;-70
2023/03/14 06:09:15;;;;;;;8.40;2.50;;;;;;;10.92;100.00;98651.25;5010700;28;20206;-69
2023/03/14 06:11:42;;;;;;;6.93;2.20;;;;;;;10.91;100.00;98659.78;5010841;28;20214;-69
2023/03/14 06:14:08;;;;;;;8.07;2.27;;;;;;;10.90;100.00;98658.97;5011346;28;20229;-69
2023/03/14 06:16:33;;;;;;;6.40;2.03;;;;;;;10.91;100.00;98658.09;5007151;28;20253;-70
2023/03/14 06:19:00;;;;;;;5.73;2.33;;;;;;;10.91;100.00;98660.66;5008798;28;20689;-75
2023/03/14 06:21:27;;;;;;;6.30;2.50;;;;;;;10.90;100.00;98661.53;4991972;28;20215;-71
2023/03/14 06:23:52;;;;;;;7.67;2.70;;;;;;;10.89;100.00;98666.66;5011492;28;20688;-71
2023/03/14 06:26:19;;;;;;;5.53;2.53;;;;;;;10.88;100.00;98670.09;4991427;28;20187;-70
2023/03/14 06:28:44;;;;;;;4.43;2.20;;;;;;;10.85;100.00;98665.03;5011434;28;20650;-70
2023/03/14 06:31:10;;;;;;;5.97;2.40;;;;;;;10.83;100.00;98667.59;5010809;28;20282;-70
2023/03/14 06:33:45;;;;;;;5.67;2.50;;;;;;;10.83;100.00;98677.84;5010917;28;20340;-70
2023/03/14 06:36:10;;;;;;;5.00;2.50;;;;;;;10.82;100.00;98678.72;5010439;28;20281;-73
2023/03/14 06:38:39;;;;;;;6.40;2.60;;;;;;;10.80;100.00;98687.31;5011519;28;20626;-70
2023/03/14 06:41:06;;;;;;;11.27;3.00;;;;;;;10.80;100.00;98677.91;5008264;28;20207;-70
2023/03/14 06:43:38;;;;;;;7.50;2.67;;;;;;;10.78;100.00;98699.28;5010492;28;20218;-71
2023/03/14 06:46:06;;;;;;;3.93;2.37;;;;;;;10.78;100.00;98687.31;5009915;28;20198;-70
2023/03/14 06:48:33;;;;;;;5.57;2.57;;;;;;;10.79;100.00;98691.56;5010633;28;20193;-70
2023/03/14 06:50:58;;;;;;;4.70;2.20;;;;;;;10.84;100.00;98697.47;5004884;28;20212;-68
2023/03/14 06:53:24;;;;;;;6.70;2.43;;;;;;;10.86;100.00;98690.59;5008664;28;20885;-69
2023/03/14 06:55:50;;;;;;;7.73;2.37;;;;;;;10.86;100.00;98698.28;5008257;28;20206;-68
2023/03/14 06:58:17;;;;;;;5.07;2.40;;;;;;;10.83;100.00;98700.88;5009461;28;20219;-71
2023/03/14 07:00:44;;;;;;;7.37;2.60;;;;;;;10.82;100.00;98698.34;4993994;28;20217;-69
2023/03/14 07:03:13;;;;;;;4.73;2.10;;;;;;;10.82;100.00;98703.47;5008763;28;20191;-69
2023/03/14 07:05:41;;;;;;;3.57;2.13;;;;;;;10.81;100.00;98720.56;5011336;28;20234;-70
2023/03/14 07:08:08;;;;;;;4.83;2.20;;;;;;;10.79;100.00;98724.84;5010189;28;20282;-69
2023/03/14 07:10:34;;;;;;;3.90;2.10;;;;;;;10.79;100.00;98721.47;5009872;28;20215;-70
2023/03/14 07:13:00;;;;;;;8.47;2.67;;;;;;;10.82;100.00;98727.38;5008467;28;20660;-70
2023/03/14 07:15:28;;;;;;;6.57;2.63;;;;;;;10.86;100.00;98726.44;4992693;28;20195;-70
2023/03/14 07:17:58;;;;;;;4.73;1.90;;;;;;;10.86;100.00;98731.56;5008538;28;20240;-70
2023/03/14 07:20:24;;;;;;;5.60;1.80;;;;;;;10.81;100.00;98735.06;4994696;28;20211;-70
2023/03/14 07:22:50;;;;;;;4.93;1.87;;;;;;;10.77;100.00;98731.72;5003078;28;20664;-70
2023/03/14 07:25:20;;;;;;;4.27;1.70;;;;;;;10.74;100.00;98730.94;5010142;28;20205;-70
2023/03/14 07:27:49;;;;;;;8.63;1.97;;;;;;;10.74;100.00;98748.84;5007960;28;20195;-71
2023/03/14 07:30:15;;;;;;;5.73;2.00;;;;;;;10.75;100.00;98740.28;5010258;28;20310;-71
2023/03/14 07:32:40;;;;;;;4.57;1.73;;;;;;;10.80;100.00;98736.78;5009172;28;20202;-69
2023/03/14 07:35:07;;;;;;;3.93;1.57;;;;;;;10.86;100.00;98739.25;5009851;28;20187;-69
2023/03/14 07:37:35;;;;;;;4.30;1.80;;;;;;;10.98;100.00;98744.19;5009418;28;20183;-72
2023/03/14 07:40:05;;;;;;;2.47;1.50;;;;;;;11.05;100.00;98748.31;5009716;28;20781;-69
2023/03/14 07:42:30;;;;;;;3.73;1.53;;;;;;;11.05;100.00;98747.47;5009076;28;20274;-71
2023/03/14 07:45:18;;;;;;;6.23;1.90;;;;;;;11.21;100.00;98743.78;5004259;28;20191;-69
2023/03/14 07:47:43;;;;;;;4.07;1.60;;;;;;;11.24;100.00;98736.06;5008840;28;20214;-70
2023/03/14 07:50:09;;;;;;;3.77;1.60;;;;;;;11.15;100.00;98749.84;5010888;28;20207;-72
2023/03/14 07:52:35;;;;;;;4.13;1.80;;;;;;;11.16;100.00;98743.03;5009418;28;20217;-71
2023/03/14 07:55:00;;;;;;;4.20;2.47;;;;;;;11.21;100.00;98746.34;5010823;28;20652;-69
2023/03/14 07:57:26;;;;;;;5.80;1.83;;;;;;;11.28;100.00;98753.91;5007793;28;20195;-69
2023/03/14 07:59:51;;;;;;;3.27;2.10;;;;;;;11.35;100.00;98744.41;5003875;28;20226;-71
2023/03/14 08:02:17;;;;;;;5.73;2.70;;;;;;;11.46;100.00;98735.66;5009037;28;20245;-69
2023/03/14 08:04:43;;;;;;;7.63;2.87;;;;;;;11.44;100.00;98739.97;5008609;28;20248;-70
2023/03/14 08:07:08;;;;;;;9.00;3.10;;;;;;;11.34;100.00;98764.03;5011397;28;20594;-71
2023/03/14 08:09:34;;;;;;;4.87;3.03;;;;;;;11.45;100.00;98749.34;5010383;28;20229;-70
2023/03/14 08:11:59;;;;;;;7.17;2.60;;;;;;;11.44;100.00;98745.09;5009948;28;20242;-69
2023/03/14 08:14:25;;;;;;;7.50;3.80;;;;;;;11.31;100.00;98747.88;5011441;28;20526;-71
2023/03/14 08:16:50;;;;;;;9.97;4.23;;;;;;;11.28;100.00;98745.38;5009522;28;20771;-70
2023/03/14 08:19:16;;;;;;;7.03;3.63;;;;;;;11.25;100.00;98746.25;5009702;28;20225;-70
2023/03/14 08:21:42;;;;;;;8.27;4.17;;;;;;;11.22;100.00;98750.59;5011647;28;20218;-71
2023/03/14 08:24:07;;;;;;;8.43;4.30;;;;;;;11.15;100.00;98747.28;5010050;28;20264;-70
2023/03/14 08:26:33;;;;;;;7.20;4.00;;;;;;;11.16;100.00;98745.59;5008996;28;20233;-70
2023/03/14 08:28:58;;;;;;;11.53;5.00;;;;;;;11.25;100.00;98730.88;4985394;28;20191;-70
2023/03/14 08:31:24;;;;;;;7.50;5.00;;;;;;;11.37;100.00;98729.84;4993537;28;20222;-70
2023/03/14 08:33:51;;;;;;;7.67;5.03;;;;;;;11.59;100.00;98732.03;5004973;28;20211;-70
2023/03/14 08:36:17;;;;;;;8.10;4.57;;;;;;;12.00;100.00;98726.94;5007317;28;20264;-71
2023/03/14 08:38:43;;;;;;;10.17;4.73;;;;;;;12.07;100.00;98714.81;5005319;28;20735;-70
2023/03/14 08:41:09;;;;;;;9.17;4.20;;;;;;;12.52;100.00;98696.69;4995527;28;20219;-71
2023/03/14 08:43:35;;;;;;;9.80;4.37;;;;;;;12.79;100.00;98688.34;5012022;28;20653;-70
2023/03/14 08:46:01;;;;;;;8.27;4.50;;;;;;;12.73;100.00;98679.94;5011125;28;20198;-69
2023/03/14 08:48:29;;;;;;;9.83;4.70;;;;;;;12.69;100.00;98686.88;5011671;28;20277;-73
2023/03/14 08:50:55;;;;;;;6.90;3.77;;;;;;;12.84;100.00;98675.34;5012883;28;20207;-70
2023/03/14 08:53:22;;;;;;;7.87;4.10;;;;;;;12.59;100.00;98689.69;5014440;28;20282;-71
2023/03/14 08:55:52;;;;;;;11.63;4.50;;;;;;;12.53;100.00;98687.28;5013859;28;20674;-70
2023/03/14 08:58:18;;;;;;;7.93;4.23;;;;;;;12.36;100.00;98689.38;5011983;28;20234;-69
2023/03/14 09:00:43;;;;;;;8.90;4.20;;;;;;;12.51;100.00;98681.31;5010703;28;20214;-70
2023/03/14 09:03:09;;;;;;;9.60;4.33;;;;;;;12.86;100.00;98650.50;5013907;28;20652;-69
2023/03/14 09:05:34;;;;;;;8.47;3.90;;;;;;;12.91;100.00;98613.50;5010775;28;20540;-69
2023/03/14 09:08:00;;;;;;;7.00;3.50;;;;;;;12.73;100.00;98631.13;5013842;28;20709;-69
2023/03/14 09:10:25;;;;;;;7.23;3.50;;;;;;;12.93;100.00;98596.34;5012037;28;20210;-69
2023/03/14 09:12:51;;;;;;;5.67;3.33;;;;;;;13.30;100.00;98598.78;5010775;28;20859;-69
2023/03/14 09:15:16;;;;;;;6.40;4.03;;;;;;;13.55;100.00;98588.66;5009670;28;20191;-69
2023/03/14 09:17:43;;;;;;;5.63;3.37;;;;;;;13.53;100.00;98590.44;5014182;28;20225;-71
2023/03/14 09:20:10;;;;;;;6.13;3.30;;;;;;;13.18;100.00;98588.88;5010128;28;20249;-70
2023/03/14 09:22:35;;;;;;;11.63;3.43;;;;;;;12.95;100.00;98614.31;5012913;28;20210;-68
2023/03/14 09:25:05;;;;;;;6.67;2.97;;;;;;;12.79;100.00;98638.69;5008198;28;20207;-69
2023/03/14 09:27:30;;;;;;;7.50;3.40;;;;;;;13.04;100.00;98590.97;5014813;28;20623;-70
2023/03/14 09:29:56;;;;;;;6.07;2.80;;;;;;;14.84;100.00;98474.59;5009037;28;20183;-70
2023/03/14 09:32:21;;;;;;;11.00;2.77;;;;;;;13.59;100.00;98457.41;5011720;28;20256;-70
2023/03/14 09:34:47;;;;;;;6.90;2.77;;;;;;;13.21;100.00;98551.97;5010190;28;20995;-69
2023/03/14 09:37:12;;;;;;;6.33;2.93;;;;;;;12.97;100.00;98620.25;5013060;28;20687;-69
2023/03/14 09:39:38;;;;;;;3.87;2.57;;;;;;;13.01;100.00;98646.72;5009178;28;20218;-69
2023/03/14 09:42:07;;;;;;;7.13;2.70;;;;;;;12.78;100.00;98642.13;5011549;28;20218;-69
2023/03/14 09:44:39;;;;;;;6.57;2.87;;;;;;;12.86;100.00;98642.78;5012558;28;20285;-70
2023/03/14 09:47:13;;;;;;;6.10;2.50;;;;;;;12.89;100.00;98648.69;5011631;28;20227;-69
2023/03/14 09:49:41;;;;;;;6.77;2.37;;;;;;;12.87;100.00;98649.63;5010494;28;20195;-70
2023/03/14 09:52:17;;;;;;;4.90;2.10;;;;;;;12.99;100.00;98626.22;5011129;28;20203;-72
2023/03/14 09:54:47;;;;;;;6.77;2.33;;;;;;;13.21;100.00;98604.19;5010210;28;20241;-70
2023/03/14 09:57:16;;;;;;;5.67;2.50;;;;;;;13.24;100.00;98582.69;5012346;28;20187;-71
2023/03/14 09:59:45;;;;;;;4.10;2.57;;;;;;;13.22;100.00;98612.75;5007979;28;21817;-72
2023/03/14 10:02:18;;;;;;;5.13;2.30;;;;;;;13.04;100.00;98623.53;5011953;28;20195;-70
2023/03/14 10:04:45;;;;;;;6.13;2.20;;;;;;;12.88;100.00;98638.44;5009135;28;20222;-71
2023/03/14 10:07:19;;;;;;;6.23;2.03;;;;;;;12.80;100.00;98658.34;5012272;28;20209;-70
2023/03/14 10:09:50;;;;;;;5.17;1.83;;;;;;;12.70;100.00;98677.41;5004435;28;20204;-70
2023/03/14 10:12:17;;;;;;;5.13;2.17;;;;;;;12.60;100.00;98725.59;5004956;28;20218;-70
2023/03/14 10:14:51;;;;;;;3.73;2.00;;;;;;;12.63;100.00;98746.06;5009873;28;20199;-71
2023/03/14 10:17:18;;;;;;;3.87;1.80;;;;;;;12.45;100.00;98773.88;5009379;28;20193;-70
2023/03/14 10:19:56;;;;;;;3.30;1.87;;;;;;;12.15;100.00;98826.66;5010683;28;20293;-70
2023/03/14 10:22:24;;;;;;;4.03;1.70;;;;;;;11.76;100.00;98811.19;5010259;28;20195;-70
2023/03/14 10:24:54;;;;;;;4.63;2.03;;;;;;;11.52;100.00;98791.09;5009312;28;20183;-70
2023/03/14 10:27:28;;;;;;;4.13;1.60;;;;;;;10.86;100.00;98815.19;5004930;28;20233;-70
2023/03/14 10:29:56;;;;;;;1.70;0.93;;;;;;;10.35;100.00;98826.16;5009599;28;20286;-71
2023/03/14 10:32:31;;;;;;;1.30;1.00;;;;;;;10.41;100.00;98833.75;5007598;28;20209;-71
2023/03/14 10:35:07;;;;;;;2.63;1.00;;;;;;;10.22;100.00;98832.25;5006473;28;20552;-68
2023/03/14 10:37:33;;;;;;;2.30;0.80;;;;;;;9.95;100.00;98841.06;5011200;28;20191;-72
2023/03/14 10:40:05;;;;;;;2.10;0.90;;;;;;;9.75;100.00;98847.25;5008359;28;20230;-70
2023/03/14 10:42:34;;;;;;;3.97;1.00;;;;;;;9.65;100.00;98861.84;5012432;28;20218;-71
2023/03/14 10:45:09;;;;;;;1.37;0.70;;;;;;;9.60;100.00;98867.84;5012250;28;20656;-72
2023/03/14 10:47:35;;;;;;;1.63;0.73;;;;;;;9.54;100.00;98880.66;5012315;28;20203;-70
2023/03/14 10:50:19;;;;;;;2.77;1.07;;;;;;;9.33;100.00;98896.16;5012012;28;20193;-72
2023/03/14 10:52:48;;;;;;;2.17;0.93;;;;;;;9.33;100.00;98901.25;5009278;28;20255;-72
2023/03/14 10:55:14;;;;;;;2.70;1.37;;;;;;;9.33;100.00;98904.66;5012249;28;20241;-71
2023/03/14 10:57:44;;;;;;;1.70;1.03;;;;;;;9.16;100.00;98921.81;5008110;28;20277;-71
2023/03/14 11:00:27;;;;;;;2.60;1.43;;;;;;;8.92;100.00;98927.06;5008256;28;20215;-72
2023/03/14 11:03:06;;;;;;;2.87;1.13;;;;;;;8.81;100.00;98938.16;5007692;28;20615;-71
2023/03/14 11:05:43;;;;;;;3.80;1.20;;;;;;;8.63;100.00;98966.31;5007507;28;20744;-71
2023/03/14 11:08:25;;;;;;;1.53;0.70;;;;;;;8.55;100.00;98975.66;5011637;28;20816;-69
2023/03/14 11:11:17;;;;;;;2.13;1.07;;;;;;;8.41;100.00;98997.81;5008818;28;20257;-71
2023/03/14 11:13:48;;;;;;;2.37;0.87;;;;;;;8.29;100.00;99010.59;5009991;28;20634;-70
2023/03/14 11:16:26;;;;;;;1.53;0.67;;;;;;;7.99;100.00;99025.88;5011674;28;20202;-72
2023/03/14 11:19:18;;;;;;;1.37;0.70;;;;;;;7.77;100.00;99029.25;5010066;28;20206;-71
2023/03/14 11:21:52;;;;;;;1.83;0.70;;;;;;;7.64;100.00;99047.94;4998043;28;20242;-70
2023/03/14 11:24:36;;;;;;;1.27;0.70;;;;;;;7.42;100.00;99067.38;5008308;28;20217;-68
2023/03/14 11:27:21;;;;;;;0.93;0.60;;;;;;;7.38;100.00;99073.28;5003107;28;20214;-68
2023/03/14 11:30:39;;;;;;;0.70;0.53;;;;;;;7.22;100.00;99083.41;4988868;28;20194;-70
2023/03/14 11:33:38;;;;;;;0.50;0.37;;;;;;;6.96;100.00;99098.56;4987113;28;20207;-71
2023/03/14 11:36:10;;;;;;;1.17;0.60;;;;;;;6.81;100.00;99118.84;5009337;28;20732;-70
2023/03/14 11:38:45;;;;;;;2.27;0.60;;;;;;;6.62;100.00;99127.19;5011641;28;20676;-70